sensor_id;sensor_type;location;lat;lon;timestamp;temperature;humidity
41437;DHT22;27178;49.460;10.850;2022-12-29T00:01:10;9.90;78.50
41437;DHT22;27178;49.460;10.850;2022-12-29T00:03:39;9.90;78.60
41437;DHT22;27178;49.460;10.850;2022-12-29T00:06:07;10.00;78.40
41437;DHT22;27178;49.460;10.850;2022-12-29T00:08:36;10.00;78.50
41437;DHT22;27178;49.460;10.850;2022-12-29T00:11:08;10.00;78.40
41437;DHT22;27178;49.460;10.850;2022-12-29T00:13:38;10.00;78.60
41437;DHT22;27178;49.460;10.850;2022-12-29T00:16:25;10.00;78.60
41437;DHT22;27178;49.460;10.850;2022-12-29T00:18:54;10.00;78.50
41437;DHT22;27178;49.460;10.850;2022-12-29T00:21:23;10.00;78.50
41437;DHT22;27178;49.460;10.850;2022-12-29T00:24:13;10.10;78.60
41437;DHT22;27178;49.460;10.850;2022-12-29T00:27:10;10.10;78.60
41437;DHT22;27178;49.460;10.850;2022-12-29T00:29:58;10.10;78.60
41437;DHT22;27178;49.460;10.850;2022-12-29T00:32:44;10.10;78.60
41437;DHT22;27178;49.460;10.850;2022-12-29T00:35:31;10.10;78.60
41437;DHT22;27178;49.460;10.850;2022-12-29T00:38:03;10.10;78.50
41437;DHT22;27178;49.460;10.850;2022-12-29T00:40:49;10.10;78.30
41437;DHT22;27178;49.460;10.850;2022-12-29T00:43:35;10.10;78.40
41437;DHT22;27178;49.460;10.850;2022-12-29T00:46:23;10.20;78.60
41437;DHT22;27178;49.460;10.850;2022-12-29T00:48:51;10.10;78.50
41437;DHT22;27178;49.460;10.850;2022-12-29T00:51:37;10.20;78.60
41437;DHT22;27178;49.460;10.850;2022-12-29T00:54:06;9.10;77.90
41437;DHT22;27178;49.460;10.850;2022-12-29T00:56:34;10.20;78.70
41437;DHT22;27178;49.460;10.850;2022-12-29T00:59:03;10.20;78.60
41437;DHT22;27178;49.460;10.850;2022-12-29T01:01:34;10.20;78.70
41437;DHT22;27178;49.460;10.850;2022-12-29T01:04:03;10.20;78.40
41437;DHT22;27178;49.460;10.850;2022-12-29T01:06:33;10.20;78.50
41437;DHT22;27178;49.460;10.850;2022-12-29T01:09:02;10.20;78.60
41437;DHT22;27178;49.460;10.850;2022-12-29T01:11:48;10.20;78.60
41437;DHT22;27178;49.460;10.850;2022-12-29T01:14:17;10.30;78.50
41437;DHT22;27178;49.460;10.850;2022-12-29T01:16:47;10.30;78.40
41437;DHT22;27178;49.460;10.850;2022-12-29T01:19:17;10.30;78.30
41437;DHT22;27178;49.460;10.850;2022-12-29T01:21:45;10.30;78.60
41437;DHT22;27178;49.460;10.850;2022-12-29T01:24:14;10.30;78.40
41437;DHT22;27178;49.460;10.850;2022-12-29T01:26:44;10.30;78.60
41437;DHT22;27178;49.460;10.850;2022-12-29T01:29:12;10.30;78.40
41437;DHT22;27178;49.460;10.850;2022-12-29T01:31:41;10.30;78.60
41437;DHT22;27178;49.460;10.850;2022-12-29T01:34:10;10.30;78.60
41437;DHT22;27178;49.460;10.850;2022-12-29T01:36:40;10.40;78.40
41437;DHT22;27178;49.460;10.850;2022-12-29T01:39:08;10.40;78.40
41437;DHT22;27178;49.460;10.850;2022-12-29T01:41:36;10.40;78.50
41437;DHT22;27178;49.460;10.850;2022-12-29T01:47:07;10.40;78.50
41437;DHT22;27178;49.460;10.850;2022-12-29T01:49:38;10.40;78.20
41437;DHT22;27178;49.460;10.850;2022-12-29T01:52:07;10.40;78.30
41437;DHT22;27178;49.460;10.850;2022-12-29T01:54:38;10.40;78.40
41437;DHT22;27178;49.460;10.850;2022-12-29T01:57:10;10.40;78.60
41437;DHT22;27178;49.460;10.850;2022-12-29T01:59:43;10.40;78.40
41437;DHT22;27178;49.460;10.850;2022-12-29T02:02:13;10.40;78.40
41437;DHT22;27178;49.460;10.850;2022-12-29T02:04:45;10.50;78.60
41437;DHT22;27178;49.460;10.850;2022-12-29T02:07:17;10.50;78.60
41437;DHT22;27178;49.460;10.850;2022-12-29T02:09:47;10.50;78.60
41437;DHT22;27178;49.460;10.850;2022-12-29T02:12:16;10.50;78.40
41437;DHT22;27178;49.460;10.850;2022-12-29T02:14:47;10.50;78.60
41437;DHT22;27178;49.460;10.850;2022-12-29T02:17:22;10.50;78.70
41437;DHT22;27178;49.460;10.850;2022-12-29T02:23:44;10.50;78.20
41437;DHT22;27178;49.460;10.850;2022-12-29T02:26:55;10.60;78.10
41437;DHT22;27178;49.460;10.850;2022-12-29T02:29:46;10.50;79.30
41437;DHT22;27178;49.460;10.850;2022-12-29T02:32:24;10.60;78.40
41437;DHT22;27178;49.460;10.850;2022-12-29T02:35:03;10.60;78.50
41437;DHT22;27178;49.460;10.850;2022-12-29T02:37:40;10.60;78.40
41437;DHT22;27178;49.460;10.850;2022-12-29T02:40:22;10.60;78.50
41437;DHT22;27178;49.460;10.850;2022-12-29T02:42:59;10.60;78.60
41437;DHT22;27178;49.460;10.850;2022-12-29T02:45:35;10.60;78.40
41437;DHT22;27178;49.460;10.850;2022-12-29T02:48:10;10.60;78.60
41437;DHT22;27178;49.460;10.850;2022-12-29T02:50:47;10.60;78.30
41437;DHT22;27178;49.460;10.850;2022-12-29T02:53:18;10.60;78.50
41437;DHT22;27178;49.460;10.850;2022-12-29T02:56:07;10.60;78.60
41437;DHT22;27178;49.460;10.850;2022-12-29T02:58:35;10.60;78.70
41437;DHT22;27178;49.460;10.850;2022-12-29T03:01:16;10.60;78.70
41437;DHT22;27178;49.460;10.850;2022-12-29T03:04:01;10.60;78.80
41437;DHT22;27178;49.460;10.850;2022-12-29T03:06:38;10.60;78.40
41437;DHT22;27178;49.460;10.850;2022-12-29T03:09:29;10.60;78.30
41437;DHT22;27178;49.460;10.850;2022-12-29T03:12:11;10.60;78.10
41437;DHT22;27178;49.460;10.850;2022-12-29T03:14:57;10.60;78.40
41437;DHT22;27178;49.460;10.850;2022-12-29T03:17:51;10.60;78.30
41437;DHT22;27178;49.460;10.850;2022-12-29T03:20:24;10.60;78.20
41437;DHT22;27178;49.460;10.850;2022-12-29T03:22:59;10.60;79.30
41437;DHT22;27178;49.460;10.850;2022-12-29T03:25:30;10.60;78.70
41437;DHT22;27178;49.460;10.850;2022-12-29T03:28:01;10.60;78.30
41437;DHT22;27178;49.460;10.850;2022-12-29T03:30:32;10.60;78.10
41437;DHT22;27178;49.460;10.850;2022-12-29T03:33:04;10.60;78.00
41437;DHT22;27178;49.460;10.850;2022-12-29T03:35:38;10.60;78.20
41437;DHT22;27178;49.460;10.850;2022-12-29T03:38:13;10.60;79.00
41437;DHT22;27178;49.460;10.850;2022-12-29T03:40:46;10.60;78.00
41437;DHT22;27178;49.460;10.850;2022-12-29T03:43:16;10.60;78.30
41437;DHT22;27178;49.460;10.850;2022-12-29T03:45:45;10.60;78.40
41437;DHT22;27178;49.460;10.850;2022-12-29T03:48:14;10.60;78.30
41437;DHT22;27178;49.460;10.850;2022-12-29T03:50:43;10.60;78.40
41437;DHT22;27178;49.460;10.850;2022-12-29T03:53:12;10.60;78.40
41437;DHT22;27178;49.460;10.850;2022-12-29T03:55:40;10.60;77.90
41437;DHT22;27178;49.460;10.850;2022-12-29T03:58:08;10.60;78.10
41437;DHT22;27178;49.460;10.850;2022-12-29T04:00:36;10.60;78.20
41437;DHT22;27178;49.460;10.850;2022-12-29T04:03:05;10.60;78.20
41437;DHT22;27178;49.460;10.850;2022-12-29T04:05:34;10.60;78.10
41437;DHT22;27178;49.460;10.850;2022-12-29T04:08:03;10.60;78.20
41437;DHT22;27178;49.460;10.850;2022-12-29T04:10:32;10.60;78.40
41437;DHT22;27178;49.460;10.850;2022-12-29T04:13:00;10.60;78.20
41437;DHT22;27178;49.460;10.850;2022-12-29T04:15:29;10.60;77.90
41437;DHT22;27178;49.460;10.850;2022-12-29T04:17:58;10.60;78.00
41437;DHT22;27178;49.460;10.850;2022-12-29T04:20:26;10.60;77.90
41437;DHT22;27178;49.460;10.850;2022-12-29T04:23:13;10.60;78.10
41437;DHT22;27178;49.460;10.850;2022-12-29T04:25:45;10.60;78.00
41437;DHT22;27178;49.460;10.850;2022-12-29T04:28:14;10.60;77.80
41437;DHT22;27178;49.460;10.850;2022-12-29T04:30:44;10.60;77.80
41437;DHT22;27178;49.460;10.850;2022-12-29T04:33:13;10.60;77.90
41437;DHT22;27178;49.460;10.850;2022-12-29T04:35:44;10.60;78.00
41437;DHT22;27178;49.460;10.850;2022-12-29T04:38:15;10.60;77.90
41437;DHT22;27178;49.460;10.850;2022-12-29T04:40:44;10.60;77.70
41437;DHT22;27178;49.460;10.850;2022-12-29T04:43:13;10.60;77.60
41437;DHT22;27178;49.460;10.850;2022-12-29T04:45:44;10.60;77.70
41437;DHT22;27178;49.460;10.850;2022-12-29T04:48:13;10.60;77.60
41437;DHT22;27178;49.460;10.850;2022-12-29T04:50:42;10.60;77.70
41437;DHT22;27178;49.460;10.850;2022-12-29T04:53:11;10.60;77.50
41437;DHT22;27178;49.460;10.850;2022-12-29T04:55:40;10.60;77.40
41437;DHT22;27178;49.460;10.850;2022-12-29T04:58:09;10.60;77.30
41437;DHT22;27178;49.460;10.850;2022-12-29T05:00:44;10.60;77.60
41437;DHT22;27178;49.460;10.850;2022-12-29T05:03:12;10.50;77.20
41437;DHT22;27178;49.460;10.850;2022-12-29T05:05:41;10.50;77.30
41437;DHT22;27178;49.460;10.850;2022-12-29T05:08:09;10.50;77.30
41437;DHT22;27178;49.460;10.850;2022-12-29T05:10:44;10.50;77.30
41437;DHT22;27178;49.460;10.850;2022-12-29T05:13:13;10.50;77.40
41437;DHT22;27178;49.460;10.850;2022-12-29T05:15:41;10.50;77.60
41437;DHT22;27178;49.460;10.850;2022-12-29T05:18:13;10.50;77.60
41437;DHT22;27178;49.460;10.850;2022-12-29T05:20:42;10.50;77.60
41437;DHT22;27178;49.460;10.850;2022-12-29T05:23:10;10.50;77.40
41437;DHT22;27178;49.460;10.850;2022-12-29T05:25:40;10.50;77.60
41437;DHT22;27178;49.460;10.850;2022-12-29T05:28:08;10.50;77.60
41437;DHT22;27178;49.460;10.850;2022-12-29T05:30:37;10.50;77.50
41437;DHT22;27178;49.460;10.850;2022-12-29T05:33:05;10.50;77.30
41437;DHT22;27178;49.460;10.850;2022-12-29T05:35:34;10.50;77.20
41437;DHT22;27178;49.460;10.850;2022-12-29T05:38:02;10.50;77.40
41437;DHT22;27178;49.460;10.850;2022-12-29T05:40:31;10.50;77.10
41437;DHT22;27178;49.460;10.850;2022-12-29T05:43:00;10.50;77.30
41437;DHT22;27178;49.460;10.850;2022-12-29T05:45:29;10.50;76.90
41437;DHT22;27178;49.460;10.850;2022-12-29T05:47:57;10.50;77.10
41437;DHT22;27178;49.460;10.850;2022-12-29T05:50:25;10.40;76.90
41437;DHT22;27178;49.460;10.850;2022-12-29T05:52:54;10.40;76.90
41437;DHT22;27178;49.460;10.850;2022-12-29T05:55:22;10.40;77.10
41437;DHT22;27178;49.460;10.850;2022-12-29T05:57:50;10.40;77.20
41437;DHT22;27178;49.460;10.850;2022-12-29T06:00:20;10.40;77.20
41437;DHT22;27178;49.460;10.850;2022-12-29T06:02:49;10.40;77.30
41437;DHT22;27178;49.460;10.850;2022-12-29T06:05:17;10.40;77.10
41437;DHT22;27178;49.460;10.850;2022-12-29T06:07:46;10.40;77.20
41437;DHT22;27178;49.460;10.850;2022-12-29T06:10:14;10.40;77.00
41437;DHT22;27178;49.460;10.850;2022-12-29T06:12:42;10.40;77.10
41437;DHT22;27178;49.460;10.850;2022-12-29T06:15:11;10.40;77.10
41437;DHT22;27178;49.460;10.850;2022-12-29T06:17:40;10.40;77.10
41437;DHT22;27178;49.460;10.850;2022-12-29T06:20:09;10.30;78.20
41437;DHT22;27178;49.460;10.850;2022-12-29T06:22:38;10.30;77.10
41437;DHT22;27178;49.460;10.850;2022-12-29T06:25:07;10.30;76.90
41437;DHT22;27178;49.460;10.850;2022-12-29T06:27:35;10.30;76.70
41437;DHT22;27178;49.460;10.850;2022-12-29T06:30:05;10.30;76.60
41437;DHT22;27178;49.460;10.850;2022-12-29T06:32:33;10.30;76.40
41437;DHT22;27178;49.460;10.850;2022-12-29T06:35:04;10.30;76.60
41437;DHT22;27178;49.460;10.850;2022-12-29T06:37:33;10.30;76.60
41437;DHT22;27178;49.460;10.850;2022-12-29T06:40:01;10.30;76.80
41437;DHT22;27178;49.460;10.850;2022-12-29T06:42:29;10.30;76.40
41437;DHT22;27178;49.460;10.850;2022-12-29T06:44:58;10.30;76.40
41437;DHT22;27178;49.460;10.850;2022-12-29T06:47:27;10.30;76.50
41437;DHT22;27178;49.460;10.850;2022-12-29T06:49:55;10.30;76.70
41437;DHT22;27178;49.460;10.850;2022-12-29T06:52:25;10.30;76.40
41437;DHT22;27178;49.460;10.850;2022-12-29T06:54:54;10.30;76.60
41437;DHT22;27178;49.460;10.850;2022-12-29T06:57:22;10.30;76.40
41437;DHT22;27178;49.460;10.850;2022-12-29T06:59:50;10.30;76.70
41437;DHT22;27178;49.460;10.850;2022-12-29T07:02:18;10.30;77.30
41437;DHT22;27178;49.460;10.850;2022-12-29T07:04:47;10.30;76.50
41437;DHT22;27178;49.460;10.850;2022-12-29T07:07:15;10.30;76.50
41437;DHT22;27178;49.460;10.850;2022-12-29T07:09:45;10.30;76.50
41437;DHT22;27178;49.460;10.850;2022-12-29T07:12:14;10.30;76.70
41437;DHT22;27178;49.460;10.850;2022-12-29T07:14:43;10.30;76.50
41437;DHT22;27178;49.460;10.850;2022-12-29T07:17:11;10.30;76.30
41437;DHT22;27178;49.460;10.850;2022-12-29T07:19:39;10.20;76.20
41437;DHT22;27178;49.460;10.850;2022-12-29T07:22:09;10.30;76.60
41437;DHT22;27178;49.460;10.850;2022-12-29T07:24:37;10.30;76.90
41437;DHT22;27178;49.460;10.850;2022-12-29T07:27:06;10.30;76.60
41437;DHT22;27178;49.460;10.850;2022-12-29T07:29:36;10.30;76.40
41437;DHT22;27178;49.460;10.850;2022-12-29T07:32:05;10.40;76.00
41437;DHT22;27178;49.460;10.850;2022-12-29T07:34:33;10.40;76.10
41437;DHT22;27178;49.460;10.850;2022-12-29T07:37:02;10.40;75.80
41437;DHT22;27178;49.460;10.850;2022-12-29T07:39:30;10.40;76.30
41437;DHT22;27178;49.460;10.850;2022-12-29T07:41:59;10.40;76.40
41437;DHT22;27178;49.460;10.850;2022-12-29T07:44:32;10.40;76.30
41437;DHT22;27178;49.460;10.850;2022-12-29T07:47:00;10.40;76.50
41437;DHT22;27178;49.460;10.850;2022-12-29T07:49:28;10.40;76.70
41437;DHT22;27178;49.460;10.850;2022-12-29T07:51:57;10.40;76.50
41437;DHT22;27178;49.460;10.850;2022-12-29T07:54:26;10.50;76.50
41437;DHT22;27178;49.460;10.850;2022-12-29T07:56:54;10.50;76.40
41437;DHT22;27178;49.460;10.850;2022-12-29T07:59:22;10.50;76.30
41437;DHT22;27178;49.460;10.850;2022-12-29T08:01:52;10.50;76.20
41437;DHT22;27178;49.460;10.850;2022-12-29T08:04:21;10.50;76.20
41437;DHT22;27178;49.460;10.850;2022-12-29T08:06:50;10.50;76.30
41437;DHT22;27178;49.460;10.850;2022-12-29T08:09:18;10.50;76.30
41437;DHT22;27178;49.460;10.850;2022-12-29T08:11:50;10.50;75.80
41437;DHT22;27178;49.460;10.850;2022-12-29T08:14:18;10.60;76.00
41437;DHT22;27178;49.460;10.850;2022-12-29T08:16:47;10.50;76.00
41437;DHT22;27178;49.460;10.850;2022-12-29T08:19:16;10.60;76.00
41437;DHT22;27178;49.460;10.850;2022-12-29T08:21:45;10.60;76.30
41437;DHT22;27178;49.460;10.850;2022-12-29T08:24:13;10.60;76.00
41437;DHT22;27178;49.460;10.850;2022-12-29T08:26:42;10.60;76.00
41437;DHT22;27178;49.460;10.850;2022-12-29T08:29:10;10.70;76.20
41437;DHT22;27178;49.460;10.850;2022-12-29T08:31:38;10.70;76.00
41437;DHT22;27178;49.460;10.850;2022-12-29T08:34:07;10.70;75.90
41437;DHT22;27178;49.460;10.850;2022-12-29T08:36:37;10.70;75.60
41437;DHT22;27178;49.460;10.850;2022-12-29T08:39:05;10.80;75.90
41437;DHT22;27178;49.460;10.850;2022-12-29T08:41:34;10.80;75.70
41437;DHT22;27178;49.460;10.850;2022-12-29T08:44:02;10.80;75.70
41437;DHT22;27178;49.460;10.850;2022-12-29T08:46:31;10.80;75.70
41437;DHT22;27178;49.460;10.850;2022-12-29T08:48:59;10.80;75.70
41437;DHT22;27178;49.460;10.850;2022-12-29T08:51:27;10.80;75.90
41437;DHT22;27178;49.460;10.850;2022-12-29T08:53:57;10.80;75.50
41437;DHT22;27178;49.460;10.850;2022-12-29T08:56:25;10.90;75.80
41437;DHT22;27178;49.460;10.850;2022-12-29T08:58:54;10.90;75.90
41437;DHT22;27178;49.460;10.850;2022-12-29T09:01:22;10.90;76.00
41437;DHT22;27178;49.460;10.850;2022-12-29T09:03:50;11.00;76.20
41437;DHT22;27178;49.460;10.850;2022-12-29T09:06:38;11.00;76.20
41437;DHT22;27178;49.460;10.850;2022-12-29T09:09:08;11.00;76.40
41437;DHT22;27178;49.460;10.850;2022-12-29T09:11:37;11.10;76.40
41437;DHT22;27178;49.460;10.850;2022-12-29T09:14:05;11.00;76.20
41437;DHT22;27178;49.460;10.850;2022-12-29T09:16:34;11.10;76.30
41437;DHT22;27178;49.460;10.850;2022-12-29T09:19:03;11.10;76.20
41437;DHT22;27178;49.460;10.850;2022-12-29T09:21:31;11.10;76.10
41437;DHT22;27178;49.460;10.850;2022-12-29T09:24:00;11.10;76.40
41437;DHT22;27178;49.460;10.850;2022-12-29T09:26:29;11.20;76.10
41437;DHT22;27178;49.460;10.850;2022-12-29T09:28:58;11.20;75.90
41437;DHT22;27178;49.460;10.850;2022-12-29T09:31:26;11.30;76.10
41437;DHT22;27178;49.460;10.850;2022-12-29T09:33:54;11.30;76.10
41437;DHT22;27178;49.460;10.850;2022-12-29T09:36:23;11.30;76.40
41437;DHT22;27178;49.460;10.850;2022-12-29T09:38:53;11.40;77.10
41437;DHT22;27178;49.460;10.850;2022-12-29T09:41:28;11.40;76.10
41437;DHT22;27178;49.460;10.850;2022-12-29T09:44:05;11.40;76.10
41437;DHT22;27178;49.460;10.850;2022-12-29T09:46:37;11.40;75.80
41437;DHT22;27178;49.460;10.850;2022-12-29T09:49:16;12.90;77.10
41437;DHT22;27178;49.460;10.850;2022-12-29T09:51:49;11.50;76.20
41437;DHT22;27178;49.460;10.850;2022-12-29T09:54:30;11.50;76.00
41437;DHT22;27178;49.460;10.850;2022-12-29T09:57:01;11.50;76.20
41437;DHT22;27178;49.460;10.850;2022-12-29T09:59:38;11.50;76.00
41437;DHT22;27178;49.460;10.850;2022-12-29T10:02:20;11.50;75.90
41437;DHT22;27178;49.460;10.850;2022-12-29T10:04:51;11.60;76.10
41437;DHT22;27178;49.460;10.850;2022-12-29T10:07:28;11.60;75.90
41437;DHT22;27178;49.460;10.850;2022-12-29T10:10:06;11.60;76.00
41437;DHT22;27178;49.460;10.850;2022-12-29T10:12:51;11.60;75.60
41437;DHT22;27178;49.460;10.850;2022-12-29T10:15:33;11.60;75.90
41437;DHT22;27178;49.460;10.850;2022-12-29T10:18:14;11.60;76.00
41437;DHT22;27178;49.460;10.850;2022-12-29T10:20:51;11.60;76.10
41437;DHT22;27178;49.460;10.850;2022-12-29T10:23:27;11.60;75.80
41437;DHT22;27178;49.460;10.850;2022-12-29T10:25:58;11.70;76.20
41437;DHT22;27178;49.460;10.850;2022-12-29T10:28:34;11.70;76.10
41437;DHT22;27178;49.460;10.850;2022-12-29T10:31:09;11.70;76.10
41437;DHT22;27178;49.460;10.850;2022-12-29T10:33:41;11.70;76.30
41437;DHT22;27178;49.460;10.850;2022-12-29T10:36:15;11.70;76.40
41437;DHT22;27178;49.460;10.850;2022-12-29T10:38:51;11.80;76.60
41437;DHT22;27178;49.460;10.850;2022-12-29T10:41:27;11.80;76.50
41437;DHT22;27178;49.460;10.850;2022-12-29T10:43:57;11.80;76.60
41437;DHT22;27178;49.460;10.850;2022-12-29T10:46:32;11.90;77.20
41437;DHT22;27178;49.460;10.850;2022-12-29T10:49:02;11.90;76.40
41437;DHT22;27178;49.460;10.850;2022-12-29T10:51:35;11.90;76.60
41437;DHT22;27178;49.460;10.850;2022-12-29T10:54:10;12.00;76.70
41437;DHT22;27178;49.460;10.850;2022-12-29T10:56:42;12.00;76.70
41437;DHT22;27178;49.460;10.850;2022-12-29T10:59:17;12.00;76.80
41437;DHT22;27178;49.460;10.850;2022-12-29T11:01:56;12.00;76.60
41437;DHT22;27178;49.460;10.850;2022-12-29T11:04:34;12.00;76.80
41437;DHT22;27178;49.460;10.850;2022-12-29T11:07:04;12.00;76.80
41437;DHT22;27178;49.460;10.850;2022-12-29T11:09:41;12.00;77.80
41437;DHT22;27178;49.460;10.850;2022-12-29T11:12:23;12.10;76.80
41437;DHT22;27178;49.460;10.850;2022-12-29T11:15:11;12.10;76.80
41437;DHT22;27178;49.460;10.850;2022-12-29T11:17:46;12.20;77.00
41437;DHT22;27178;49.460;10.850;2022-12-29T11:20:32;12.20;77.00
41437;DHT22;27178;49.460;10.850;2022-12-29T11:23:03;12.20;77.50
41437;DHT22;27178;49.460;10.850;2022-12-29T11:25:32;12.20;77.00
41437;DHT22;27178;49.460;10.850;2022-12-29T11:28:02;12.30;77.00
41437;DHT22;27178;49.460;10.850;2022-12-29T11:30:31;12.30;77.00
41437;DHT22;27178;49.460;10.850;2022-12-29T11:33:03;12.30;77.00
41437;DHT22;27178;49.460;10.850;2022-12-29T11:35:35;12.30;77.10
41437;DHT22;27178;49.460;10.850;2022-12-29T11:38:04;12.30;77.20
41437;DHT22;27178;49.460;10.850;2022-12-29T11:40:38;12.40;77.00
41437;DHT22;27178;49.460;10.850;2022-12-29T11:43:15;12.40;77.00
41437;DHT22;27178;49.460;10.850;2022-12-29T11:45:46;12.40;77.10
41437;DHT22;27178;49.460;10.850;2022-12-29T11:48:18;12.40;77.00
41437;DHT22;27178;49.460;10.850;2022-12-29T11:50:51;12.40;77.20
41437;DHT22;27178;49.460;10.850;2022-12-29T11:53:22;12.50;77.30
41437;DHT22;27178;49.460;10.850;2022-12-29T11:55:53;12.50;77.30
41437;DHT22;27178;49.460;10.850;2022-12-29T11:58:28;12.50;77.40
41437;DHT22;27178;49.460;10.850;2022-12-29T12:01:01;12.50;77.40
41437;DHT22;27178;49.460;10.850;2022-12-29T12:03:34;12.50;77.50
41437;DHT22;27178;49.460;10.850;2022-12-29T12:06:07;12.60;77.70
41437;DHT22;27178;49.460;10.850;2022-12-29T12:08:41;12.60;77.70
41437;DHT22;27178;49.460;10.850;2022-12-29T12:11:14;12.60;77.70
41437;DHT22;27178;49.460;10.850;2022-12-29T12:13:50;12.60;77.70
41437;DHT22;27178;49.460;10.850;2022-12-29T12:16:26;12.70;77.70
41437;DHT22;27178;49.460;10.850;2022-12-29T12:19:03;12.70;77.60
41437;DHT22;27178;49.460;10.850;2022-12-29T12:21:38;12.70;77.50
41437;DHT22;27178;49.460;10.850;2022-12-29T12:24:27;12.80;77.50
41437;DHT22;27178;49.460;10.850;2022-12-29T12:27:02;12.80;77.30
41437;DHT22;27178;49.460;10.850;2022-12-29T12:29:41;12.80;77.40
41437;DHT22;27178;49.460;10.850;2022-12-29T12:32:15;12.80;77.40
41437;DHT22;27178;49.460;10.850;2022-12-29T12:34:46;12.80;77.60
41437;DHT22;27178;49.460;10.850;2022-12-29T12:37:39;12.80;77.60
41437;DHT22;27178;49.460;10.850;2022-12-29T12:40:35;12.80;77.60
41437;DHT22;27178;49.460;10.850;2022-12-29T12:43:23;12.80;77.70
41437;DHT22;27178;49.460;10.850;2022-12-29T12:46:07;12.80;77.80
41437;DHT22;27178;49.460;10.850;2022-12-29T12:49:04;12.80;78.00
41437;DHT22;27178;49.460;10.850;2022-12-29T12:51:44;12.80;79.10
41437;DHT22;27178;49.460;10.850;2022-12-29T12:54:31;12.80;78.20
41437;DHT22;27178;49.460;10.850;2022-12-29T12:57:08;12.80;78.40
41437;DHT22;27178;49.460;10.850;2022-12-29T12:59:49;12.90;78.40
41437;DHT22;27178;49.460;10.850;2022-12-29T13:02:34;12.90;78.40
41437;DHT22;27178;49.460;10.850;2022-12-29T13:05:15;12.90;78.50
41437;DHT22;27178;49.460;10.850;2022-12-29T13:08:03;12.90;78.40
41437;DHT22;27178;49.460;10.850;2022-12-29T13:10:41;12.90;78.40
41437;DHT22;27178;49.460;10.850;2022-12-29T13:13:45;12.90;78.50
41437;DHT22;27178;49.460;10.850;2022-12-29T13:16:24;13.00;78.60
41437;DHT22;27178;49.460;10.850;2022-12-29T13:18:59;12.90;78.60
41437;DHT22;27178;49.460;10.850;2022-12-29T13:21:37;12.90;78.60
41437;DHT22;27178;49.460;10.850;2022-12-29T13:24:23;13.00;78.80
41437;DHT22;27178;49.460;10.850;2022-12-29T13:26:57;13.00;78.90
41437;DHT22;27178;49.460;10.850;2022-12-29T13:29:33;13.00;78.80
41437;DHT22;27178;49.460;10.850;2022-12-29T13:32:15;13.00;78.80
41437;DHT22;27178;49.460;10.850;2022-12-29T13:35:01;13.00;78.70
41437;DHT22;27178;49.460;10.850;2022-12-29T13:37:35;13.00;78.80
41437;DHT22;27178;49.460;10.850;2022-12-29T13:40:13;12.90;78.80
41437;DHT22;27178;49.460;10.850;2022-12-29T13:42:43;13.00;78.90
41437;DHT22;27178;49.460;10.850;2022-12-29T13:45:14;13.00;78.90
41437;DHT22;27178;49.460;10.850;2022-12-29T13:47:46;13.00;79.00
41437;DHT22;27178;49.460;10.850;2022-12-29T13:50:19;13.00;79.10
41437;DHT22;27178;49.460;10.850;2022-12-29T13:52:54;13.00;78.90
41437;DHT22;27178;49.460;10.850;2022-12-29T13:55:29;13.00;79.00
41437;DHT22;27178;49.460;10.850;2022-12-29T13:58:04;13.00;78.90
41437;DHT22;27178;49.460;10.850;2022-12-29T14:00:45;13.00;79.00
41437;DHT22;27178;49.460;10.850;2022-12-29T14:03:49;13.00;78.90
41437;DHT22;27178;49.460;10.850;2022-12-29T14:06:25;13.00;79.10
41437;DHT22;27178;49.460;10.850;2022-12-29T14:08:56;12.90;78.90
41437;DHT22;27178;49.460;10.850;2022-12-29T14:11:33;12.90;78.80
41437;DHT22;27178;49.460;10.850;2022-12-29T14:14:11;12.90;78.90
41437;DHT22;27178;49.460;10.850;2022-12-29T14:16:40;12.90;78.90
41437;DHT22;27178;49.460;10.850;2022-12-29T14:19:13;12.90;78.80
41437;DHT22;27178;49.460;10.850;2022-12-29T14:21:51;12.90;78.80
41437;DHT22;27178;49.460;10.850;2022-12-29T14:24:43;12.90;78.90
41437;DHT22;27178;49.460;10.850;2022-12-29T14:27:51;12.90;78.90
41437;DHT22;27178;49.460;10.850;2022-12-29T14:30:51;12.90;78.90
41437;DHT22;27178;49.460;10.850;2022-12-29T14:33:24;12.80;78.70
41437;DHT22;27178;49.460;10.850;2022-12-29T14:35:54;12.80;78.80
41437;DHT22;27178;49.460;10.850;2022-12-29T14:38:30;12.80;78.90
41437;DHT22;27178;49.460;10.850;2022-12-29T14:41:27;12.80;79.10
41437;DHT22;27178;49.460;10.850;2022-12-29T14:44:02;12.80;79.30
41437;DHT22;27178;49.460;10.850;2022-12-29T14:46:48;12.80;79.30
41437;DHT22;27178;49.460;10.850;2022-12-29T14:49:19;12.70;79.30
41437;DHT22;27178;49.460;10.850;2022-12-29T14:51:50;12.70;79.40
41437;DHT22;27178;49.460;10.850;2022-12-29T14:54:44;12.70;79.40
41437;DHT22;27178;49.460;10.850;2022-12-29T14:57:32;12.80;79.60
41437;DHT22;27178;49.460;10.850;2022-12-29T15:00:16;12.70;79.50
41437;DHT22;27178;49.460;10.850;2022-12-29T15:02:49;12.80;79.60
41437;DHT22;27178;49.460;10.850;2022-12-29T15:05:42;12.70;79.60
41437;DHT22;27178;49.460;10.850;2022-12-29T15:08:16;12.70;79.70
41437;DHT22;27178;49.460;10.850;2022-12-29T15:10:50;12.70;79.60
41437;DHT22;27178;49.460;10.850;2022-12-29T15:13:32;12.80;79.70
41437;DHT22;27178;49.460;10.850;2022-12-29T15:16:02;12.70;79.60
41437;DHT22;27178;49.460;10.850;2022-12-29T15:18:32;12.70;79.60
41437;DHT22;27178;49.460;10.850;2022-12-29T15:21:03;12.70;79.70
41437;DHT22;27178;49.460;10.850;2022-12-29T15:23:33;12.70;79.70
41437;DHT22;27178;49.460;10.850;2022-12-29T15:26:04;12.70;79.70
41437;DHT22;27178;49.460;10.850;2022-12-29T15:28:38;12.70;79.60
41437;DHT22;27178;49.460;10.850;2022-12-29T15:31:12;12.70;79.70
41437;DHT22;27178;49.460;10.850;2022-12-29T15:33:43;12.70;79.70
41437;DHT22;27178;49.460;10.850;2022-12-29T15:36:18;12.70;79.60
41437;DHT22;27178;49.460;10.850;2022-12-29T15:38:49;12.70;79.70
41437;DHT22;27178;49.460;10.850;2022-12-29T15:41:34;12.80;79.70
41437;DHT22;27178;49.460;10.850;2022-12-29T15:44:28;12.80;79.80
41437;DHT22;27178;49.460;10.850;2022-12-29T15:47:02;12.80;79.70
41437;DHT22;27178;49.460;10.850;2022-12-29T15:49:32;12.70;79.70
41437;DHT22;27178;49.460;10.850;2022-12-29T15:52:00;12.70;79.70
41437;DHT22;27178;49.460;10.850;2022-12-29T15:54:33;12.70;79.80
41437;DHT22;27178;49.460;10.850;2022-12-29T15:57:02;12.70;79.80
41437;DHT22;27178;49.460;10.850;2022-12-29T15:59:32;12.70;79.90
41437;DHT22;27178;49.460;10.850;2022-12-29T16:02:02;12.70;80.10